createdAt,value
2019-03-17T00:01:22.728Z,28.70
2019-03-17T00:03:26.363Z,30.02
2019-03-17T00:07:32.922Z,30.35
2019-03-17T00:11:39.285Z,28.35
2019-03-17T00:15:45.811Z,28.25
2019-03-17T00:17:49.425Z,28.67
2019-03-17T00:21:55.853Z,24.12
2019-03-17T00:26:02.186Z,26.65
2019-03-17T00:30:11.344Z,24.85
2019-03-17T00:32:14.912Z,23.85
2019-03-17T00:36:21.337Z,25.30
2019-03-17T00:40:27.727Z,26.12
2019-03-17T00:44:34.136Z,24.98
2019-03-17T00:48:40.560Z,21.75
2019-03-17T00:52:46.987Z,20.52
2019-03-17T00:56:53.355Z,23.80
2019-03-17T01:00:59.749Z,21.25
2019-03-17T01:05:06.580Z,18.98
2019-03-17T01:07:10.156Z,20.62
2019-03-17T01:11:16.497Z,20.05
2019-03-17T01:15:22.995Z,22.52
2019-03-17T01:19:29.384Z,19.70
2019-03-17T01:23:35.746Z,19.15
2019-03-17T01:27:42.343Z,20.65
2019-03-17T01:29:45.837Z,23.02
2019-03-17T01:33:52.218Z,18.17
2019-03-17T01:37:58.651Z,17.10
2019-03-17T01:40:02.219Z,18.40
2019-03-17T01:44:08.639Z,18.80
2019-03-17T01:48:15.005Z,20.72
2019-03-17T01:52:21.343Z,23.57
2019-03-17T01:56:27.696Z,25.32
2019-03-17T02:00:34.306Z,25.88
2019-03-17T02:02:37.899Z,25.68
2019-03-17T02:06:44.396Z,27.67
2019-03-17T02:08:47.971Z,25.92
2019-03-17T02:12:54.367Z,25.40
2019-03-17T02:17:00.721Z,29.45
2019-03-17T02:21:07.200Z,30.45
2019-03-17T02:25:13.576Z,26.50
2019-03-17T02:29:19.922Z,25.52
2019-03-17T02:33:26.297Z,21.02
2019-03-17T02:37:34.401Z,26.12
2019-03-17T02:41:40.873Z,20.37
2019-03-17T02:45:47.273Z,20.12
2019-03-17T02:49:53.743Z,17.25
2019-03-17T02:51:57.302Z,19.40
2019-03-17T02:56:03.744Z,17.17
2019-03-17T02:58:07.344Z,16.50
2019-03-17T03:02:14.236Z,21.60
2019-03-17T03:06:20.604Z,17.85
2019-03-17T03:10:27.029Z,17.42
2019-03-17T03:12:30.614Z,19.17
2019-03-17T03:16:37.331Z,19.62
2019-03-17T03:18:40.910Z,18.10
2019-03-17T03:22:47.366Z,21.40
2019-03-17T03:24:50.934Z,22.52
2019-03-17T03:28:57.331Z,16.00
2019-03-17T03:33:03.882Z,19.10
2019-03-17T03:35:09.158Z,17.23
2019-03-17T03:37:12.720Z,14.80
2019-03-17T03:41:19.082Z,17.23
2019-03-17T03:45:25.516Z,15.30
2019-03-17T03:49:31.865Z,13.35
2019-03-17T03:53:38.254Z,15.88
2019-03-17T03:59:49.129Z,13.55
2019-03-17T04:01:52.849Z,12.78
2019-03-17T04:03:56.492Z,12.93
2019-03-17T04:06:00.075Z,13.32
2019-03-17T04:10:08.694Z,13.85
2019-03-17T04:12:12.279Z,12.90
2019-03-17T04:16:18.643Z,13.93
2019-03-17T04:20:25.038Z,14.30
2019-03-17T04:24:31.560Z,17.65
2019-03-17T04:28:37.973Z,15.58
2019-03-17T04:32:44.450Z,17.40
2019-03-17T04:36:50.862Z,17.75
2019-03-17T04:40:57.205Z,20.85
2019-03-17T04:45:03.817Z,21.57
2019-03-17T04:47:07.519Z,22.50
2019-03-17T04:49:11.076Z,20.97
2019-03-17T04:53:17.488Z,24.82
2019-03-17T04:57:23.924Z,16.00
2019-03-17T04:59:27.565Z,14.43
2019-03-17T05:01:31.156Z,13.85
2019-03-17T05:05:37.519Z,16.12
2019-03-17T05:09:43.988Z,13.32
2019-03-17T05:11:47.592Z,14.70
2019-03-17T05:15:53.982Z,16.12
2019-03-17T05:17:57.577Z,17.17
2019-03-17T05:22:04.011Z,17.75
2019-03-17T05:24:07.610Z,17.62
2019-03-17T05:28:13.961Z,17.77
2019-03-17T05:32:20.408Z,27.45
2019-03-17T05:34:24.005Z,24.87
2019-03-17T05:38:30.359Z,19.90
2019-03-17T05:42:36.738Z,15.85
2019-03-17T05:46:43.254Z,12.53
2019-03-17T05:48:46.862Z,14.00
2019-03-17T05:52:53.239Z,11.68
2019-03-17T05:56:59.613Z,12.60
2019-03-17T06:01:06.112Z,10.40
2019-03-17T06:05:12.547Z,14.55
2019-03-17T06:07:19.011Z,13.93
2019-03-17T06:09:21.378Z,14.78
2019-03-17T06:13:27.749Z,16.10
2019-03-17T06:17:34.107Z,15.13
2019-03-17T06:21:42.731Z,14.25
2019-03-17T06:23:46.378Z,13.38
2019-03-17T06:25:50.008Z,13.95
2019-03-17T06:27:53.571Z,10.20
2019-03-17T06:32:00.005Z,14.85
2019-03-17T06:34:03.611Z,12.98
2019-03-17T06:38:10.021Z,12.58
2019-03-17T06:42:16.772Z,15.58
2019-03-17T06:46:23.182Z,13.03
2019-03-17T06:50:29.531Z,14.80
2019-03-17T06:54:35.900Z,15.40
2019-03-17T06:58:42.358Z,12.23
2019-03-17T07:02:49.112Z,13.38
2019-03-17T07:04:54.109Z,13.38
2019-03-17T07:06:57.852Z,13.00
2019-03-17T07:11:04.305Z,14.95
2019-03-17T07:15:13.627Z,15.90
2019-03-17T07:17:19.339Z,11.57
2019-03-17T07:19:22.422Z,15.18
2019-03-17T07:23:28.804Z,10.10
2019-03-17T07:27:35.208Z,11.88
2019-03-17T07:31:41.547Z,13.05
2019-03-17T07:35:48.515Z,8.43
2019-03-17T07:37:57.012Z,8.15
2019-03-17T07:39:57.394Z,9.13
2019-03-17T07:44:03.887Z,7.95
2019-03-17T07:48:10.335Z,10.13
